createdAt,value
2022-09-12T00:01:15.269Z,9.15
2022-09-12T00:03:43.913Z,8.05
2022-09-12T00:06:14.220Z,8.63
2022-09-12T00:08:44.128Z,8.38
2022-09-12T00:11:19.278Z,8.27
2022-09-12T00:13:52.087Z,9.38
2022-09-12T00:16:22.816Z,8.95
2022-09-12T00:18:51.470Z,8.25
2022-09-12T00:21:20.751Z,8.70
2022-09-12T00:23:49.023Z,9.23
2022-09-12T00:26:17.778Z,7.90
2022-09-12T00:28:46.786Z,9.23
2022-09-12T00:31:18.789Z,9.10
2022-09-12T00:33:47.499Z,8.52
2022-09-12T00:36:17.764Z,8.30
2022-09-12T00:38:49.218Z,8.77
2022-09-12T00:41:20.258Z,9.50
2022-09-12T00:43:49.978Z,10.23
2022-09-12T00:46:27.915Z,8.38
2022-09-12T00:48:59.729Z,9.73
2022-09-12T00:51:28.931Z,9.73
2022-09-12T00:53:57.337Z,9.50
2022-09-12T00:56:25.914Z,9.25
2022-09-12T00:58:57.533Z,8.65
2022-09-12T01:01:31.719Z,9.48
2022-09-12T01:04:00.758Z,9.82
2022-09-12T01:06:30.610Z,8.20
2022-09-12T01:09:03.496Z,10.02
2022-09-12T01:11:32.561Z,8.52
2022-09-12T01:14:00.999Z,9.07
2022-09-12T01:16:30.812Z,8.02
2022-09-12T01:19:07.463Z,9.15
2022-09-12T01:21:38.664Z,9.57
2022-09-12T01:24:44.918Z,9.90
2022-09-12T01:27:24.185Z,9.80
2022-09-12T01:30:22.132Z,10.07
2022-09-12T01:33:01.991Z,9.38
2022-09-12T01:35:34.398Z,11.25
2022-09-12T01:38:13.273Z,11.15
2022-09-12T01:40:46.451Z,9.50
2022-09-12T01:43:21.362Z,10.38
2022-09-12T01:45:55.583Z,10.43
2022-09-12T01:48:26.513Z,9.90
2022-09-12T01:51:00.517Z,10.70
2022-09-12T01:53:31.379Z,11.27
2022-09-12T01:56:09.849Z,12.07
2022-09-12T01:58:42.088Z,11.02
2022-09-12T02:01:12.825Z,10.45
2022-09-12T02:03:45.936Z,10.65
2022-09-12T02:06:18.574Z,12.27
2022-09-12T02:08:49.834Z,11.30
2022-09-12T02:11:18.049Z,9.80
2022-09-12T02:13:49.712Z,11.90
2022-09-12T02:16:20.333Z,10.65
2022-09-12T02:18:54.583Z,10.77
2022-09-12T02:21:24.248Z,10.75
2022-09-12T02:23:56.674Z,10.90
2022-09-12T02:26:29.356Z,11.93
2022-09-12T02:28:58.807Z,10.48
2022-09-12T02:31:30.247Z,10.00
2022-09-12T02:34:10.769Z,11.65
2022-09-12T02:36:50.117Z,11.43
2022-09-12T02:39:21.538Z,11.82
2022-09-12T02:41:51.779Z,11.93
2022-09-12T02:44:20.106Z,10.80
2022-09-12T02:46:50.366Z,11.15
2022-09-12T02:49:20.042Z,10.13
2022-09-12T02:51:49.230Z,10.43
2022-09-12T02:54:19.163Z,11.85
2022-09-12T02:56:47.547Z,11.65
2022-09-12T02:59:18.062Z,11.18
2022-09-12T03:02:05.643Z,10.98
2022-09-12T03:04:48.321Z,12.57
2022-09-12T03:07:22.002Z,12.47
2022-09-12T03:09:55.635Z,11.73
2022-09-12T03:12:34.003Z,10.60
2022-09-12T03:15:14.325Z,12.57
2022-09-12T03:17:50.871Z,13.48
2022-09-12T03:20:24.418Z,11.77
2022-09-12T03:22:55.964Z,11.18
2022-09-12T03:25:28.481Z,11.73
2022-09-12T03:28:00.210Z,12.77
2022-09-12T03:30:28.915Z,12.85
2022-09-12T03:32:57.100Z,11.80
2022-09-12T03:35:27.138Z,11.93
2022-09-12T03:37:55.233Z,12.02
2022-09-12T03:40:23.557Z,12.38
2022-09-12T03:42:51.869Z,12.70
2022-09-12T03:45:19.940Z,13.05
2022-09-12T03:47:50.117Z,12.95
2022-09-12T03:50:18.717Z,12.35
2022-09-12T03:52:48.278Z,12.45
2022-09-12T03:55:16.551Z,12.25
2022-09-12T03:57:44.891Z,12.77
2022-09-12T04:00:19.074Z,11.93
2022-09-12T04:02:48.522Z,11.32
2022-09-12T04:05:16.767Z,12.18
2022-09-12T04:07:44.894Z,12.57
2022-09-12T04:10:16.209Z,11.88
2022-09-12T04:12:44.769Z,12.55
2022-09-12T04:15:13.536Z,12.77
2022-09-12T04:17:41.832Z,11.95
2022-09-12T04:20:10.694Z,11.98
2022-09-12T04:22:38.862Z,12.13
2022-09-12T04:25:08.487Z,11.95
2022-09-12T04:27:38.063Z,12.63
2022-09-12T04:30:07.266Z,13.43
2022-09-12T04:32:35.618Z,11.45
2022-09-12T04:35:03.830Z,13.23
2022-09-12T04:37:32.011Z,12.07
2022-09-12T04:40:00.495Z,11.98
2022-09-12T04:42:28.727Z,11.65
2022-09-12T04:44:58.295Z,11.02
2022-09-12T04:47:26.626Z,11.57
2022-09-12T04:49:54.752Z,13.68
2022-09-12T04:52:23.009Z,14.43
2022-09-12T04:54:51.305Z,13.13
2022-09-12T04:57:19.448Z,13.75
2022-09-12T04:59:47.563Z,13.27
2022-09-12T05:02:17.262Z,13.02
2022-09-12T05:04:47.008Z,67.00
2022-09-12T05:07:15.207Z,16.33
2022-09-12T05:09:45.071Z,14.93
2022-09-12T05:12:14.347Z,23.83
2022-09-12T05:14:44.390Z,14.50
2022-09-12T05:17:12.642Z,12.73
2022-09-12T05:19:43.432Z,14.55
2022-09-12T05:22:11.588Z,14.63
2022-09-12T05:24:47.259Z,13.68
2022-09-12T05:27:18.046Z,13.88
2022-09-12T05:29:46.417Z,14.55
2022-09-12T05:32:14.593Z,13.50
2022-09-12T05:34:44.129Z,14.88
2022-09-12T05:37:13.275Z,13.88
2022-09-12T05:39:41.540Z,15.10
2022-09-12T05:42:10.018Z,13.73
2022-09-12T05:44:38.271Z,13.82
2022-09-12T05:47:06.723Z,13.13
2022-09-12T05:49:36.560Z,14.13
2022-09-12T05:52:06.547Z,12.90
2022-09-12T05:54:34.746Z,13.30
2022-09-12T05:57:02.977Z,12.57
2022-09-12T05:59:31.243Z,15.07
2022-09-12T06:01:59.470Z,16.55
2022-09-12T06:04:28.190Z,12.80
2022-09-12T06:06:56.780Z,11.45
2022-09-12T06:09:26.281Z,19.55
2022-09-12T06:11:57.176Z,13.10
2022-09-12T06:14:27.109Z,13.48
2022-09-12T06:16:55.269Z,12.23
2022-09-12T06:19:25.347Z,12.95
2022-09-12T06:21:53.522Z,13.32
2022-09-12T06:24:22.376Z,12.20
2022-09-12T06:26:54.805Z,11.63
2022-09-12T06:29:23.168Z,12.30
2022-09-12T06:31:51.335Z,13.07
2022-09-12T06:34:20.214Z,12.60
2022-09-12T06:36:50.913Z,12.68
2022-09-12T06:39:20.766Z,13.13
2022-09-12T06:41:49.563Z,11.63
2022-09-12T06:44:20.356Z,12.38
2022-09-12T06:46:48.969Z,13.35
2022-09-12T06:49:19.268Z,12.85
2022-09-12T06:51:47.485Z,15.50
2022-09-12T06:54:17.064Z,13.30
2022-09-12T06:56:45.874Z,12.25
2022-09-12T06:59:14.125Z,13.35
2022-09-12T07:01:43.856Z,14.27
2022-09-12T07:04:12.062Z,13.48
2022-09-12T07:06:41.528Z,13.27
2022-09-12T07:09:11.755Z,13.88
2022-09-12T07:11:41.294Z,13.10
2022-09-12T07:14:11.527Z,13.75
2022-09-12T07:16:39.702Z,15.18
2022-09-12T07:19:09.967Z,13.90
2022-09-12T07:21:40.536Z,13.45
2022-09-12T07:24:10.502Z,14.68
2022-09-12T07:26:40.117Z,15.93
2022-09-12T07:29:34.768Z,15.77
2022-09-12T07:31:57.759Z,16.25
2022-09-12T07:34:27.393Z,14.70
2022-09-12T07:36:55.733Z,16.17
2022-09-12T07:39:24.039Z,15.70
2022-09-12T07:41:52.219Z,22.30
2022-09-12T07:44:24.905Z,13.80
2022-09-12T07:46:54.632Z,15.32
2022-09-12T07:49:24.185Z,19.52
2022-09-12T07:51:54.086Z,21.25
2022-09-12T07:54:22.418Z,21.08
2022-09-12T07:56:50.591Z,22.73
2022-09-12T07:59:41.389Z,20.42
2022-09-12T08:02:07.523Z,20.50
2022-09-12T08:04:37.603Z,25.05
2022-09-12T08:07:07.489Z,25.23
2022-09-12T08:09:35.697Z,22.92
2022-09-12T08:12:04.243Z,25.85
2022-09-12T08:14:34.388Z,22.48
2022-09-12T08:17:02.495Z,25.40
2022-09-12T08:19:32.250Z,21.77
2022-09-12T08:22:00.434Z,24.80
2022-09-12T08:24:29.983Z,27.70
2022-09-12T08:26:58.285Z,26.92
2022-09-12T08:29:26.471Z,29.20
2022-09-12T08:31:57.279Z,30.17
2022-09-12T08:34:26.447Z,30.60
2022-09-12T08:36:55.290Z,32.00
2022-09-12T08:39:24.708Z,30.48
2022-09-12T08:41:59.923Z,27.17
2022-09-12T08:44:51.158Z,28.38
2022-09-12T08:47:23.370Z,28.20
2022-09-12T08:50:02.310Z,31.67
2022-09-12T08:52:37.536Z,29.15
2022-09-12T08:55:07.599Z,30.60
2022-09-12T08:57:37.105Z,31.10
2022-09-12T09:00:08.210Z,30.90
2022-09-12T09:03:07.534Z,30.90
2022-09-12T09:05:47.402Z,34.47
2022-09-12T09:08:23.274Z,32.65
2022-09-12T09:10:55.426Z,29.98
2022-09-12T09:13:52.345Z,30.25
2022-09-12T09:16:27.505Z,35.40
2022-09-12T09:19:01.481Z,25.05
2022-09-12T09:21:34.086Z,28.83
2022-09-12T09:24:05.057Z,30.63
2022-09-12T09:26:42.340Z,31.48
2022-09-12T09:29:18.861Z,28.85
2022-09-12T09:31:50.397Z,30.73
2022-09-12T09:34:21.955Z,29.23
2022-09-12T09:36:54.536Z,27.92
2022-09-12T09:39:31.786Z,28.65
2022-09-12T09:42:13.092Z,27.42
2022-09-12T09:44:43.933Z,21.95
2022-09-12T09:47:12.496Z,21.92
2022-09-12T09:49:43.382Z,28.90
2022-09-12T09:52:14.617Z,31.25
2022-09-12T09:54:46.135Z,28.23
2022-09-12T09:57:46.715Z,20.27
2022-09-12T10:00:31.899Z,27.73
2022-09-12T10:03:23.843Z,27.50
2022-09-12T10:05:53.994Z,22.40
2022-09-12T10:08:24.161Z,21.25
2022-09-12T10:10:57.191Z,25.85
2022-09-12T10:13:29.551Z,22.73
2022-09-12T10:16:01.646Z,26.53
2022-09-12T10:18:41.881Z,24.85
2022-09-12T10:21:28.246Z,24.80
2022-09-12T10:24:03.324Z,23.95
2022-09-12T10:26:37.464Z,20.30
2022-09-12T10:29:12.669Z,23.60
2022-09-12T10:31:48.957Z,23.33
2022-09-12T10:34:27.960Z,17.02
2022-09-12T10:37:01.506Z,26.05
2022-09-12T10:39:31.143Z,23.65
2022-09-12T10:41:59.363Z,24.90
2022-09-12T10:44:29.861Z,23.48
2022-09-12T10:47:00.167Z,25.02
2022-09-12T10:49:31.569Z,23.80
2022-09-12T10:52:18.469Z,25.40
2022-09-12T10:54:46.856Z,23.83
2022-09-12T10:57:34.044Z,23.58
2022-09-12T11:00:17.305Z,24.33
2022-09-12T11:02:52.392Z,25.33
2022-09-12T11:05:42.041Z,25.02
2022-09-12T11:08:22.010Z,26.17
2022-09-12T11:10:57.245Z,24.00
2022-09-12T11:13:50.422Z,22.38
2022-09-12T11:16:25.915Z,22.50
2022-09-12T11:19:05.656Z,23.60
2022-09-12T11:21:46.386Z,23.77
2022-09-12T11:24:34.935Z,25.02
2022-09-12T11:27:12.250Z,25.25
2022-09-12T11:29:49.875Z,22.15
2022-09-12T11:32:34.463Z,22.77
2022-09-12T11:35:08.320Z,20.77
2022-09-12T11:37:47.312Z,20.23
2022-09-12T11:40:27.912Z,16.15
2022-09-12T11:43:01.091Z,19.25
2022-09-12T11:45:31.427Z,18.70
2022-09-12T11:48:05.495Z,18.20
2022-09-12T11:50:34.963Z,18.23
2022-09-12T11:53:11.235Z,17.10
2022-09-12T11:55:48.149Z,17.65
2022-09-12T11:58:16.762Z,16.83
2022-09-12T12:00:48.381Z,19.40
2022-09-12T12:03:25.323Z,16.42
2022-09-12T12:05:57.222Z,16.80
2022-09-12T12:08:27.759Z,15.73
2022-09-12T12:10:57.573Z,15.38
2022-09-12T12:13:29.994Z,16.17
2022-09-12T12:16:00.951Z,13.87
2022-09-12T12:18:30.230Z,14.48
2022-09-12T12:21:21.247Z,14.27
2022-09-12T12:24:05.069Z,13.15
2022-09-12T12:27:00.286Z,13.52
2022-09-12T12:29:43.678Z,13.73
2022-09-12T12:32:30.637Z,12.70
2022-09-12T12:35:50.480Z,12.85
2022-09-12T12:38:30.717Z,12.65
2022-09-12T12:41:34.510Z,13.40
2022-09-12T12:44:41.668Z,10.52
2022-09-12T12:47:17.383Z,10.57
2022-09-12T12:49:52.916Z,10.70
2022-09-12T12:52:21.502Z,10.45
2022-09-12T12:55:01.925Z,10.25
2022-09-12T12:57:37.110Z,11.00
2022-09-12T13:00:09.009Z,9.73
2022-09-12T13:02:40.100Z,9.43
2022-09-12T13:05:19.309Z,10.05
2022-09-12T13:07:48.374Z,9.25
2022-09-12T13:10:24.446Z,9.00
2022-09-12T13:12:53.900Z,9.63
2022-09-12T13:15:52.126Z,9.50
2022-09-12T13:18:26.478Z,8.38
2022-09-12T13:20:59.530Z,10.82
2022-09-12T13:23:29.984Z,9.35
2022-09-12T13:26:00.661Z,9.27
2022-09-12T13:28:29.960Z,9.23
2022-09-12T13:31:01.467Z,9.95
2022-09-12T13:33:36.259Z,10.60
2022-09-12T13:36:43.807Z,10.15
2022-09-12T13:39:18.916Z,8.75
2022-09-12T13:42:20.524Z,9.23
2022-09-12T13:44:52.426Z,9.25
2022-09-12T13:47:27.424Z,10.13
2022-09-12T13:49:56.158Z,9.05
2022-09-12T13:52:27.543Z,8.52
2022-09-12T13:54:57.125Z,8.57
2022-09-12T13:57:33.848Z,9.27
2022-09-12T14:00:07.605Z,7.88
2022-09-12T14:02:38.035Z,8.20
2022-09-12T14:05:14.037Z,10.00
2022-09-12T14:07:56.419Z,10.60
2022-09-12T14:10:32.076Z,8.75
2022-09-12T14:13:03.024Z,8.70
2022-09-12T14:15:35.659Z,9.45
2022-09-12T14:18:05.546Z,8.63
2022-09-12T14:20:38.046Z,8.77
2022-09-12T14:23:12.513Z,9.18
2022-09-12T14:25:42.135Z,9.55
2022-09-12T14:28:13.445Z,7.88
2022-09-12T14:30:43.195Z,8.32
2022-09-12T14:33:20.910Z,10.13
2022-09-12T14:35:50.423Z,8.48
2022-09-12T14:38:26.099Z,9.18
2022-09-12T14:41:01.051Z,10.05
2022-09-12T14:43:30.640Z,8.93
2022-09-12T14:46:02.802Z,8.30
2022-09-12T14:48:33.122Z,9.55
2022-09-12T14:51:01.475Z,8.85
2022-09-12T14:53:34.596Z,8.85
2022-09-12T14:56:10.485Z,9.07
2022-09-12T14:58:39.130Z,8.65
2022-09-12T15:01:32.642Z,8.27
2022-09-12T15:04:01.034Z,7.72
2022-09-12T15:06:30.753Z,10.10
2022-09-12T15:08:59.867Z,8.98
2022-09-12T15:11:28.157Z,7.80
2022-09-12T15:13:56.292Z,8.90
2022-09-12T15:16:24.459Z,9.23
2022-09-12T15:18:54.528Z,8.70
2022-09-12T15:21:23.073Z,8.60
2022-09-12T15:23:52.410Z,7.32
2022-09-12T15:26:23.134Z,8.05
2022-09-12T15:28:52.275Z,8.35
2022-09-12T15:31:25.436Z,7.97
2022-09-12T15:33:56.035Z,7.90
2022-09-12T15:36:25.845Z,8.40
2022-09-12T15:38:56.068Z,7.75
2022-09-12T15:41:26.976Z,8.60
2022-09-12T15:43:55.494Z,8.55
2022-09-12T15:46:24.036Z,9.82
2022-09-12T15:48:55.918Z,8.30
2022-09-12T15:51:24.241Z,8.57
2022-09-12T15:53:53.139Z,8.70
2022-09-12T15:56:27.476Z,7.57
2022-09-12T15:58:59.349Z,7.93
2022-09-12T16:01:28.883Z,8.57
2022-09-12T16:03:59.072Z,9.40
2022-09-12T16:06:27.997Z,8.02
2022-09-12T16:08:56.552Z,7.68
2022-09-12T16:11:26.488Z,8.55
2022-09-12T16:13:55.604Z,8.70
2022-09-12T16:16:24.085Z,8.18
2022-09-12T16:18:52.317Z,7.13
2022-09-12T16:21:23.058Z,7.55
2022-09-12T16:23:53.089Z,7.78
2022-09-12T16:26:21.350Z,7.72
2022-09-12T16:28:49.896Z,6.80
2022-09-12T16:31:18.217Z,8.05
2022-09-12T16:33:46.519Z,6.10
2022-09-12T16:36:16.659Z,7.40
2022-09-12T16:38:47.691Z,7.45
2022-09-12T16:41:16.919Z,17.60
2022-09-12T16:43:45.638Z,7.53
2022-09-12T16:46:16.154Z,7.28
2022-09-12T16:48:49.549Z,9.82
2022-09-12T16:51:21.916Z,7.03
2022-09-12T16:53:51.898Z,6.47
2022-09-12T16:56:20.404Z,6.57
2022-09-12T16:58:49.182Z,7.15
2022-09-12T17:01:19.405Z,6.65
2022-09-12T17:03:47.688Z,6.68
2022-09-12T17:06:17.298Z,6.00
2022-09-12T17:08:47.501Z,6.43
2022-09-12T17:11:18.754Z,6.40
2022-09-12T17:14:06.091Z,6.97
2022-09-12T17:16:36.196Z,6.60
2022-09-12T17:19:07.318Z,6.38
2022-09-12T17:21:36.674Z,6.68
2022-09-12T17:24:05.321Z,6.30
2022-09-12T17:26:34.872Z,6.15
2022-09-12T17:29:03.443Z,6.10
2022-09-12T17:31:32.110Z,6.82
2022-09-12T17:34:01.142Z,5.70
2022-09-12T17:36:32.130Z,6.30
2022-09-12T17:39:00.573Z,7.72
2022-09-12T17:41:32.353Z,6.00
2022-09-12T17:44:03.657Z,6.60
2022-09-12T17:46:35.247Z,5.82
2022-09-12T17:49:04.865Z,5.88
2022-09-12T17:51:35.377Z,6.72
2022-09-12T17:54:05.618Z,5.90
2022-09-12T17:56:35.751Z,6.28
2022-09-12T17:59:06.704Z,7.38
2022-09-12T18:01:52.431Z,5.32
2022-09-12T18:04:21.158Z,6.20
2022-09-12T18:06:49.770Z,6.72
2022-09-12T18:09:19.776Z,6.00
2022-09-12T18:11:49.164Z,6.50
2022-09-12T18:14:19.396Z,6.35
2022-09-12T18:16:49.229Z,5.95
2022-09-12T18:19:17.834Z,6.57
2022-09-12T18:21:46.976Z,5.72
2022-09-12T18:24:15.763Z,6.35
2022-09-12T18:26:45.029Z,5.78
2022-09-12T18:29:16.994Z,6.80
2022-09-12T18:31:47.980Z,5.93
2022-09-12T18:34:17.332Z,5.53
2022-09-12T18:36:46.971Z,6.25
2022-09-12T18:39:15.247Z,6.30
2022-09-12T18:41:43.788Z,6.20
2022-09-12T18:44:12.779Z,7.47
2022-09-12T18:46:43.042Z,6.68
2022-09-12T18:49:12.992Z,5.93
2022-09-12T18:51:42.004Z,6.30
2022-09-12T18:54:14.855Z,7.07
2022-09-12T18:56:45.976Z,6.10
2022-09-12T18:59:15.425Z,6.47
2022-09-12T19:01:44.476Z,6.40
2022-09-12T19:04:16.859Z,7.00
2022-09-12T19:06:46.307Z,6.70
2022-09-12T19:09:16.464Z,6.70
2022-09-12T19:11:49.670Z,8.23
2022-09-12T19:16:47.313Z,6.38
2022-09-12T19:19:16.839Z,6.82
2022-09-12T19:21:45.289Z,7.05
2022-09-12T19:24:14.489Z,6.50
2022-09-12T19:26:42.771Z,6.55
2022-09-12T19:29:14.132Z,7.55
2022-09-12T19:31:42.499Z,7.13
2022-09-12T19:34:12.233Z,7.75
2022-09-12T19:36:46.694Z,7.57
2022-09-12T19:39:16.389Z,8.23
2022-09-12T19:41:44.897Z,7.90
2022-09-12T19:44:13.071Z,7.53
2022-09-12T19:46:41.929Z,7.75
2022-09-12T19:49:12.100Z,7.40
2022-09-12T19:51:41.936Z,7.22
2022-09-12T19:54:10.338Z,7.88
2022-09-12T19:56:38.638Z,7.68
2022-09-12T19:59:06.779Z,8.73
2022-09-12T20:01:37.233Z,7.30
2022-09-12T20:04:07.033Z,7.38
2022-09-12T20:06:35.319Z,7.72
2022-09-12T20:09:05.199Z,7.15
2022-09-12T20:11:33.614Z,7.10
2022-09-12T20:14:01.836Z,6.78
2022-09-12T20:16:30.335Z,6.65
2022-09-12T20:19:02.651Z,6.55
2022-09-12T20:21:35.890Z,6.70
2022-09-12T20:24:07.102Z,7.47
2022-09-12T20:26:35.746Z,8.05
2022-09-12T20:29:04.847Z,6.95
2022-09-12T20:31:33.769Z,7.05
2022-09-12T20:34:02.345Z,6.82
2022-09-12T20:36:30.557Z,7.75
2022-09-12T20:39:01.481Z,7.45
2022-09-12T20:41:33.014Z,9.10
2022-09-12T20:44:01.185Z,7.28
2022-09-12T20:46:30.027Z,8.18
2022-09-12T20:48:58.924Z,7.93
2022-09-12T20:51:29.831Z,7.43
2022-09-12T20:53:58.853Z,7.25
2022-09-12T20:56:28.069Z,7.80
2022-09-12T20:59:06.524Z,8.77
2022-09-12T21:01:35.016Z,6.53
2022-09-12T21:04:04.027Z,8.30
2022-09-12T21:06:32.712Z,7.60
2022-09-12T21:09:00.928Z,6.72
2022-09-12T21:11:29.709Z,7.57
2022-09-12T21:13:59.614Z,9.75
2022-09-12T21:16:28.022Z,8.32
2022-09-12T21:18:57.274Z,7.80
2022-09-12T21:21:26.080Z,8.82
2022-09-12T21:23:55.448Z,8.07
2022-09-12T21:26:23.575Z,7.90
2022-09-12T21:28:51.846Z,7.95
2022-09-12T21:31:21.477Z,8.25
2022-09-12T21:33:50.222Z,8.40
2022-09-12T21:36:19.111Z,9.65
2022-09-12T21:38:48.696Z,7.90
2022-09-12T21:41:18.441Z,8.30
2022-09-12T21:43:46.714Z,8.38
2022-09-12T21:46:14.862Z,8.07
2022-09-12T21:48:45.469Z,9.02
2022-09-12T21:51:13.726Z,9.48
2022-09-12T21:53:41.887Z,8.05
2022-09-12T21:56:10.847Z,8.82
2022-09-12T21:58:40.090Z,9.73
2022-09-12T22:01:10.503Z,8.40
2022-09-12T22:03:38.681Z,8.05
2022-09-12T22:06:08.614Z,9.27
2022-09-12T22:08:38.925Z,7.72
2022-09-12T22:11:09.811Z,7.38
2022-09-12T22:13:39.354Z,8.70
2022-09-12T22:16:08.003Z,7.43
2022-09-12T22:18:37.593Z,7.85
2022-09-12T22:21:09.166Z,7.35
2022-09-12T22:23:55.054Z,7.82
2022-09-12T22:26:23.282Z,8.32
2022-09-12T22:28:51.748Z,8.82
2022-09-12T22:31:20.453Z,10.70
2022-09-12T22:33:48.868Z,12.52
2022-09-12T22:36:18.469Z,14.65
2022-09-12T22:38:46.829Z,16.00
2022-09-12T22:41:15.090Z,21.20
2022-09-12T22:43:43.200Z,21.48
2022-09-12T22:46:13.519Z,24.38
2022-09-12T22:48:42.049Z,23.85
2022-09-12T22:51:10.381Z,22.10
2022-09-12T22:53:39.971Z,20.92
2022-09-12T22:56:08.624Z,22.10
2022-09-12T22:58:37.983Z,20.90
2022-09-12T23:01:07.345Z,18.45
2022-09-12T23:03:36.482Z,17.05
2022-09-12T23:06:05.666Z,15.27
2022-09-12T23:08:36.025Z,14.38
2022-09-12T23:11:09.422Z,11.82
2022-09-12T23:13:37.917Z,11.75
2022-09-12T23:16:08.045Z,10.00
2022-09-12T23:18:37.134Z,9.68
2022-09-12T23:21:07.141Z,7.82
2022-09-12T23:23:36.499Z,8.30
2022-09-12T23:26:12.278Z,8.30
2022-09-12T23:28:40.917Z,8.57
2022-09-12T23:31:10.195Z,8.18
2022-09-12T23:33:38.591Z,7.38
2022-09-12T23:36:11.484Z,7.82
2022-09-12T23:38:39.762Z,8.45
2022-09-12T23:41:09.893Z,7.03
2022-09-12T23:43:38.408Z,7.55
2022-09-12T23:46:08.326Z,6.95
2022-09-12T23:48:36.628Z,7.85
2022-09-12T23:51:07.392Z,6.53
2022-09-12T23:53:35.978Z,8.23
2022-09-12T23:56:04.633Z,8.98
2022-09-12T23:58:34.460Z,7.32
